sensor_id;sensor_type;location;lat;lon;timestamp;P1;durP1;ratioP1;P2;durP2;ratioP2
13832;SDS011;6987;19.472;-99.276;2023-04-12T00:01:22;3.83;;;3.53;;
13832;SDS011;6987;19.472;-99.276;2023-04-12T00:03:51;2.33;;;2.13;;
13832;SDS011;6987;19.472;-99.276;2023-04-12T00:06:20;2.67;;;2.58;;
13832;SDS011;6987;19.472;-99.276;2023-04-12T00:08:59;4.35;;;4.05;;
13832;SDS011;6987;19.472;-99.276;2023-04-12T00:11:29;3.50;;;3.25;;
13832;SDS011;6987;19.472;-99.276;2023-04-12T00:13:58;3.83;;;3.63;;
13832;SDS011;6987;19.472;-99.276;2023-04-12T00:16:27;3.75;;;3.42;;
13832;SDS011;6987;19.472;-99.276;2023-04-12T00:18:56;4.28;;;3.97;;
13832;SDS011;6987;19.472;-99.276;2023-04-12T00:21:26;5.28;;;3.55;;
13832;SDS011;6987;19.472;-99.276;2023-04-12T00:23:55;3.13;;;2.88;;
13832;SDS011;6987;19.472;-99.276;2023-04-12T00:26:26;3.78;;;3.50;;
13832;SDS011;6987;19.472;-99.276;2023-04-12T00:28:56;3.30;;;3.10;;
13832;SDS011;6987;19.472;-99.276;2023-04-12T00:31:25;3.35;;;3.05;;
13832;SDS011;6987;19.472;-99.276;2023-04-12T00:33:54;3.50;;;3.40;;
13832;SDS011;6987;19.472;-99.276;2023-04-12T00:36:23;3.65;;;3.35;;
13832;SDS011;6987;19.472;-99.276;2023-04-12T00:38:52;3.53;;;3.33;;
13832;SDS011;6987;19.472;-99.276;2023-04-12T00:41:21;3.38;;;3.17;;
13832;SDS011;6987;19.472;-99.276;2023-04-12T00:43:52;3.85;;;3.55;;
13832;SDS011;6987;19.472;-99.276;2023-04-12T00:46:21;4.40;;;3.80;;
13832;SDS011;6987;19.472;-99.276;2023-04-12T00:48:50;4.20;;;3.90;;
13832;SDS011;6987;19.472;-99.276;2023-04-12T00:51:19;4.55;;;3.42;;
13832;SDS011;6987;19.472;-99.276;2023-04-12T00:53:50;4.10;;;3.72;;
13832;SDS011;6987;19.472;-99.276;2023-04-12T00:56:20;4.25;;;3.35;;
13832;SDS011;6987;19.472;-99.276;2023-04-12T00:58:48;3.97;;;3.72;;
13832;SDS011;6987;19.472;-99.276;2023-04-12T01:01:19;3.67;;;3.38;;
13832;SDS011;6987;19.472;-99.276;2023-04-12T01:03:48;3.75;;;3.55;;
13832;SDS011;6987;19.472;-99.276;2023-04-12T01:06:21;4.75;;;4.35;;
13832;SDS011;6987;19.472;-99.276;2023-04-12T01:08:57;5.68;;;4.00;;
13832;SDS011;6987;19.472;-99.276;2023-04-12T01:11:29;4.07;;;3.88;;
13832;SDS011;6987;19.472;-99.276;2023-04-12T01:14:01;4.55;;;4.25;;
13832;SDS011;6987;19.472;-99.276;2023-04-12T01:16:33;5.03;;;4.05;;
13832;SDS011;6987;19.472;-99.276;2023-04-12T01:19:08;5.00;;;4.65;;
13832;SDS011;6987;19.472;-99.276;2023-04-12T01:21:44;3.75;;;3.55;;
13832;SDS011;6987;19.472;-99.276;2023-04-12T01:24:24;4.40;;;3.88;;
13832;SDS011;6987;19.472;-99.276;2023-04-12T01:26:54;4.20;;;3.88;;
13832;SDS011;6987;19.472;-99.276;2023-04-12T01:29:27;6.05;;;4.50;;
13832;SDS011;6987;19.472;-99.276;2023-04-12T01:31:57;4.63;;;4.30;;
13832;SDS011;6987;19.472;-99.276;2023-04-12T01:34:27;3.90;;;3.60;;
13832;SDS011;6987;19.472;-99.276;2023-04-12T01:36:57;5.05;;;4.25;;
13832;SDS011;6987;19.472;-99.276;2023-04-12T01:39:27;4.63;;;4.00;;
13832;SDS011;6987;19.472;-99.276;2023-04-12T01:41:57;5.15;;;4.70;;
13832;SDS011;6987;19.472;-99.276;2023-04-12T01:44:27;6.22;;;5.22;;
13832;SDS011;6987;19.472;-99.276;2023-04-12T01:46:56;5.00;;;4.55;;
13832;SDS011;6987;19.472;-99.276;2023-04-12T01:49:26;5.10;;;4.70;;
13832;SDS011;6987;19.472;-99.276;2023-04-12T01:52:00;6.13;;;5.55;;
13832;SDS011;6987;19.472;-99.276;2023-04-12T01:54:32;5.57;;;4.90;;
13832;SDS011;6987;19.472;-99.276;2023-04-12T01:57:02;4.40;;;4.10;;
13832;SDS011;6987;19.472;-99.276;2023-04-12T01:59:37;5.15;;;4.65;;
13832;SDS011;6987;19.472;-99.276;2023-04-12T02:02:07;3.72;;;3.53;;
13832;SDS011;6987;19.472;-99.276;2023-04-12T02:04:36;4.07;;;3.78;;
13832;SDS011;6987;19.472;-99.276;2023-04-12T02:07:06;3.60;;;3.40;;
13832;SDS011;6987;19.472;-99.276;2023-04-12T02:09:36;3.10;;;3.00;;
13832;SDS011;6987;19.472;-99.276;2023-04-12T02:12:05;3.70;;;3.33;;
13832;SDS011;6987;19.472;-99.276;2023-04-12T02:14:36;3.55;;;3.25;;
13832;SDS011;6987;19.472;-99.276;2023-04-12T02:17:05;3.17;;;2.95;;
13832;SDS011;6987;19.472;-99.276;2023-04-12T02:19:34;3.95;;;3.70;;
13832;SDS011;6987;19.472;-99.276;2023-04-12T02:22:03;3.25;;;3.08;;
13832;SDS011;6987;19.472;-99.276;2023-04-12T02:24:33;3.88;;;3.65;;
13832;SDS011;6987;19.472;-99.276;2023-04-12T02:27:02;6.78;;;3.83;;
13832;SDS011;6987;19.472;-99.276;2023-04-12T02:29:32;3.45;;;3.25;;
13832;SDS011;6987;19.472;-99.276;2023-04-12T02:32:03;3.63;;;3.33;;
13832;SDS011;6987;19.472;-99.276;2023-04-12T02:34:32;3.75;;;3.55;;
13832;SDS011;6987;19.472;-99.276;2023-04-12T02:37:03;3.25;;;2.78;;
13832;SDS011;6987;19.472;-99.276;2023-04-12T02:39:32;4.20;;;3.25;;
13832;SDS011;6987;19.472;-99.276;2023-04-12T02:42:01;2.67;;;2.58;;
13832;SDS011;6987;19.472;-99.276;2023-04-12T02:44:30;2.72;;;2.63;;
13832;SDS011;6987;19.472;-99.276;2023-04-12T02:46:59;2.58;;;2.38;;
13832;SDS011;6987;19.472;-99.276;2023-04-12T02:49:30;2.30;;;2.20;;
13832;SDS011;6987;19.472;-99.276;2023-04-12T02:51:59;1.92;;;1.90;;
13832;SDS011;6987;19.472;-99.276;2023-04-12T02:54:29;1.45;;;1.35;;
13832;SDS011;6987;19.472;-99.276;2023-04-12T02:56:58;1.83;;;1.73;;
13832;SDS011;6987;19.472;-99.276;2023-04-12T02:59:28;2.22;;;2.00;;
13832;SDS011;6987;19.472;-99.276;2023-04-12T03:01:57;2.00;;;1.80;;
13832;SDS011;6987;19.472;-99.276;2023-04-12T03:04:27;1.70;;;1.60;;
13832;SDS011;6987;19.472;-99.276;2023-04-12T03:06:59;1.90;;;1.80;;
13832;SDS011;6987;19.472;-99.276;2023-04-12T03:09:28;2.00;;;1.90;;
13832;SDS011;6987;19.472;-99.276;2023-04-12T03:11:57;5.00;;;1.92;;
13832;SDS011;6987;19.472;-99.276;2023-04-12T03:14:27;2.22;;;2.03;;
13832;SDS011;6987;19.472;-99.276;2023-04-12T03:16:56;2.42;;;2.22;;
13832;SDS011;6987;19.472;-99.276;2023-04-12T03:19:25;2.05;;;1.95;;
13832;SDS011;6987;19.472;-99.276;2023-04-12T03:21:59;1.73;;;1.60;;
13832;SDS011;6987;19.472;-99.276;2023-04-12T03:24:29;1.77;;;1.67;;
13832;SDS011;6987;19.472;-99.276;2023-04-12T03:26:59;1.90;;;1.80;;
13832;SDS011;6987;19.472;-99.276;2023-04-12T03:29:28;1.60;;;1.50;;
13832;SDS011;6987;19.472;-99.276;2023-04-12T03:31:58;2.08;;;1.98;;
13832;SDS011;6987;19.472;-99.276;2023-04-12T03:34:27;1.90;;;1.70;;
13832;SDS011;6987;19.472;-99.276;2023-04-12T03:36:56;1.48;;;1.48;;
13832;SDS011;6987;19.472;-99.276;2023-04-12T03:39:28;1.60;;;1.60;;
13832;SDS011;6987;19.472;-99.276;2023-04-12T03:41:57;1.77;;;1.67;;
13832;SDS011;6987;19.472;-99.276;2023-04-12T03:44:26;1.70;;;1.42;;
13832;SDS011;6987;19.472;-99.276;2023-04-12T03:46:55;2.50;;;1.65;;
13832;SDS011;6987;19.472;-99.276;2023-04-12T03:49:24;1.73;;;1.63;;
13832;SDS011;6987;19.472;-99.276;2023-04-12T03:51:53;2.55;;;2.35;;
13832;SDS011;6987;19.472;-99.276;2023-04-12T03:54:23;3.03;;;2.75;;
13832;SDS011;6987;19.472;-99.276;2023-04-12T03:56:55;3.22;;;2.17;;
13832;SDS011;6987;19.472;-99.276;2023-04-12T03:59:24;2.28;;;2.13;;
13832;SDS011;6987;19.472;-99.276;2023-04-12T04:01:53;2.42;;;2.20;;
13832;SDS011;6987;19.472;-99.276;2023-04-12T04:04:23;2.88;;;2.13;;
13832;SDS011;6987;19.472;-99.276;2023-04-12T04:06:52;5.75;;;2.38;;
13832;SDS011;6987;19.472;-99.276;2023-04-12T04:09:21;2.28;;;2.10;;
13832;SDS011;6987;19.472;-99.276;2023-04-12T04:11:50;2.95;;;2.75;;
13832;SDS011;6987;19.472;-99.276;2023-04-12T04:14:21;3.08;;;2.78;;
13832;SDS011;6987;19.472;-99.276;2023-04-12T04:16:50;3.47;;;3.03;;
13832;SDS011;6987;19.472;-99.276;2023-04-12T04:19:20;3.35;;;3.05;;
13832;SDS011;6987;19.472;-99.276;2023-04-12T04:21:49;4.22;;;3.80;;
13832;SDS011;6987;19.472;-99.276;2023-04-12T04:24:20;3.30;;;3.13;;
13832;SDS011;6987;19.472;-99.276;2023-04-12T04:26:50;3.67;;;3.38;;
13832;SDS011;6987;19.472;-99.276;2023-04-12T04:29:21;3.80;;;3.38;;
13832;SDS011;6987;19.472;-99.276;2023-04-12T04:31:50;3.30;;;3.15;;
13832;SDS011;6987;19.472;-99.276;2023-04-12T04:34:20;3.08;;;2.97;;
13832;SDS011;6987;19.472;-99.276;2023-04-12T04:36:50;3.28;;;3.08;;
13832;SDS011;6987;19.472;-99.276;2023-04-12T04:39:19;4.20;;;3.90;;
13832;SDS011;6987;19.472;-99.276;2023-04-12T04:41:48;3.28;;;3.08;;
13832;SDS011;6987;19.472;-99.276;2023-04-12T04:44:19;2.70;;;2.60;;
13832;SDS011;6987;19.472;-99.276;2023-04-12T04:46:52;2.58;;;2.45;;
13832;SDS011;6987;19.472;-99.276;2023-04-12T04:49:21;3.38;;;3.17;;
13832;SDS011;6987;19.472;-99.276;2023-04-12T04:51:50;2.83;;;2.65;;
13832;SDS011;6987;19.472;-99.276;2023-04-12T04:54:19;2.75;;;2.55;;
13832;SDS011;6987;19.472;-99.276;2023-04-12T04:56:48;3.25;;;2.95;;
13832;SDS011;6987;19.472;-99.276;2023-04-12T04:59:17;2.70;;;2.50;;
13832;SDS011;6987;19.472;-99.276;2023-04-12T05:01:48;3.45;;;2.80;;
13832;SDS011;6987;19.472;-99.276;2023-04-12T05:04:19;3.08;;;2.97;;
13832;SDS011;6987;19.472;-99.276;2023-04-12T05:06:48;3.58;;;3.15;;
13832;SDS011;6987;19.472;-99.276;2023-04-12T05:09:18;2.47;;;2.38;;
13832;SDS011;6987;19.472;-99.276;2023-04-12T05:11:47;3.22;;;2.25;;
13832;SDS011;6987;19.472;-99.276;2023-04-12T05:14:16;2.63;;;2.42;;
13832;SDS011;6987;19.472;-99.276;2023-04-12T05:16:45;2.30;;;2.20;;
13832;SDS011;6987;19.472;-99.276;2023-04-12T05:19:14;2.60;;;2.50;;
13832;SDS011;6987;19.472;-99.276;2023-04-12T05:21:45;1.65;;;1.65;;
13832;SDS011;6987;19.472;-99.276;2023-04-12T05:24:14;5.47;;;2.70;;
13832;SDS011;6987;19.472;-99.276;2023-04-12T05:26:43;2.72;;;2.40;;
13832;SDS011;6987;19.472;-99.276;2023-04-12T05:29:12;2.60;;;2.50;;
13832;SDS011;6987;19.472;-99.276;2023-04-12T05:31:41;3.60;;;2.90;;
13832;SDS011;6987;19.472;-99.276;2023-04-12T05:34:11;1.85;;;1.75;;
13832;SDS011;6987;19.472;-99.276;2023-04-12T05:36:40;2.67;;;2.58;;
13832;SDS011;6987;19.472;-99.276;2023-04-12T05:39:11;2.60;;;2.40;;
13832;SDS011;6987;19.472;-99.276;2023-04-12T05:41:39;2.53;;;2.33;;
13832;SDS011;6987;19.472;-99.276;2023-04-12T05:44:09;2.53;;;2.38;;
13832;SDS011;6987;19.472;-99.276;2023-04-12T05:46:37;2.80;;;2.60;;
13832;SDS011;6987;19.472;-99.276;2023-04-12T05:49:08;3.17;;;2.97;;
13832;SDS011;6987;19.472;-99.276;2023-04-12T05:51:37;5.82;;;2.63;;
13832;SDS011;6987;19.472;-99.276;2023-04-12T05:54:06;2.88;;;2.70;;
13832;SDS011;6987;19.472;-99.276;2023-04-12T05:56:37;4.00;;;2.65;;
13832;SDS011;6987;19.472;-99.276;2023-04-12T05:59:06;2.78;;;2.58;;
13832;SDS011;6987;19.472;-99.276;2023-04-12T06:01:37;3.15;;;3.05;;
13832;SDS011;6987;19.472;-99.276;2023-04-12T06:04:07;3.03;;;2.83;;
13832;SDS011;6987;19.472;-99.276;2023-04-12T06:06:36;3.35;;;3.05;;
13832;SDS011;6987;19.472;-99.276;2023-04-12T06:09:05;3.30;;;3.10;;
13832;SDS011;6987;19.472;-99.276;2023-04-12T06:11:34;3.20;;;2.95;;
13832;SDS011;6987;19.472;-99.276;2023-04-12T06:14:05;4.38;;;3.03;;
13832;SDS011;6987;19.472;-99.276;2023-04-12T06:19:10;3.15;;;2.80;;
13832;SDS011;6987;19.472;-99.276;2023-04-12T06:21:40;3.50;;;3.22;;
13832;SDS011;6987;19.472;-99.276;2023-04-12T06:24:11;3.03;;;2.80;;
13832;SDS011;6987;19.472;-99.276;2023-04-12T06:26:42;2.88;;;2.78;;
13832;SDS011;6987;19.472;-99.276;2023-04-12T06:29:15;3.20;;;3.00;;
13832;SDS011;6987;19.472;-99.276;2023-04-12T06:31:45;3.10;;;2.92;;
13832;SDS011;6987;19.472;-99.276;2023-04-12T06:34:14;3.22;;;3.03;;
13832;SDS011;6987;19.472;-99.276;2023-04-12T06:36:43;3.58;;;3.38;;
13832;SDS011;6987;19.472;-99.276;2023-04-12T06:39:12;3.75;;;3.45;;
13832;SDS011;6987;19.472;-99.276;2023-04-12T06:41:43;3.72;;;3.53;;
13832;SDS011;6987;19.472;-99.276;2023-04-12T06:44:17;3.70;;;3.50;;
13832;SDS011;6987;19.472;-99.276;2023-04-12T06:46:46;3.53;;;3.25;;
13832;SDS011;6987;19.472;-99.276;2023-04-12T06:49:16;3.88;;;3.63;;
13832;SDS011;6987;19.472;-99.276;2023-04-12T06:51:45;3.40;;;3.20;;
13832;SDS011;6987;19.472;-99.276;2023-04-12T06:54:17;4.30;;;4.00;;
13832;SDS011;6987;19.472;-99.276;2023-04-12T06:56:46;3.65;;;3.45;;
13832;SDS011;6987;19.472;-99.276;2023-04-12T06:59:17;3.90;;;3.47;;
13832;SDS011;6987;19.472;-99.276;2023-04-12T07:01:47;3.72;;;3.50;;
13832;SDS011;6987;19.472;-99.276;2023-04-12T07:04:17;3.60;;;3.33;;
13832;SDS011;6987;19.472;-99.276;2023-04-12T07:06:48;3.33;;;3.13;;
13832;SDS011;6987;19.472;-99.276;2023-04-12T07:09:19;4.40;;;3.17;;
13832;SDS011;6987;19.472;-99.276;2023-04-12T07:11:49;3.05;;;2.85;;
13832;SDS011;6987;19.472;-99.276;2023-04-12T07:14:20;3.80;;;3.50;;
13832;SDS011;6987;19.472;-99.276;2023-04-12T07:16:51;4.07;;;3.47;;
13832;SDS011;6987;19.472;-99.276;2023-04-12T07:19:19;3.20;;;2.90;;
13832;SDS011;6987;19.472;-99.276;2023-04-12T07:21:48;2.58;;;2.40;;
13832;SDS011;6987;19.472;-99.276;2023-04-12T07:24:19;3.90;;;2.40;;
13832;SDS011;6987;19.472;-99.276;2023-04-12T07:26:49;2.80;;;2.60;;
13832;SDS011;6987;19.472;-99.276;2023-04-12T07:29:24;2.03;;;1.90;;
13832;SDS011;6987;19.472;-99.276;2023-04-12T07:31:53;2.83;;;2.17;;
13832;SDS011;6987;19.472;-99.276;2023-04-12T07:34:23;2.55;;;2.35;;
13832;SDS011;6987;19.472;-99.276;2023-04-12T07:36:53;2.08;;;1.98;;
13832;SDS011;6987;19.472;-99.276;2023-04-12T07:39:22;3.42;;;2.25;;
13832;SDS011;6987;19.472;-99.276;2023-04-12T07:41:52;3.70;;;2.33;;
13832;SDS011;6987;19.472;-99.276;2023-04-12T07:44:24;2.50;;;2.40;;
13832;SDS011;6987;19.472;-99.276;2023-04-12T07:46:53;2.58;;;1.95;;
13832;SDS011;6987;19.472;-99.276;2023-04-12T07:49:25;2.28;;;2.08;;
13832;SDS011;6987;19.472;-99.276;2023-04-12T07:51:55;1.95;;;1.85;;
13832;SDS011;6987;19.472;-99.276;2023-04-12T07:54:26;1.92;;;1.83;;
13832;SDS011;6987;19.472;-99.276;2023-04-12T07:56:59;2.00;;;1.90;;
13832;SDS011;6987;19.472;-99.276;2023-04-12T07:59:36;2.90;;;2.70;;
13832;SDS011;6987;19.472;-99.276;2023-04-12T08:02:07;2.25;;;2.15;;
13832;SDS011;6987;19.472;-99.276;2023-04-12T08:04:36;2.35;;;2.15;;
13832;SDS011;6987;19.472;-99.276;2023-04-12T08:07:08;2.25;;;2.15;;
13832;SDS011;6987;19.472;-99.276;2023-04-12T08:09:37;3.60;;;2.30;;
13832;SDS011;6987;19.472;-99.276;2023-04-12T08:12:07;2.22;;;2.03;;
13832;SDS011;6987;19.472;-99.276;2023-04-12T08:14:40;2.05;;;1.95;;
13832;SDS011;6987;19.472;-99.276;2023-04-12T08:17:10;2.38;;;2.28;;
13832;SDS011;6987;19.472;-99.276;2023-04-12T08:19:40;2.20;;;2.00;;
13832;SDS011;6987;19.472;-99.276;2023-04-12T08:22:09;2.22;;;2.08;;
13832;SDS011;6987;19.472;-99.276;2023-04-12T08:24:38;2.33;;;2.22;;
13832;SDS011;6987;19.472;-99.276;2023-04-12T08:27:08;2.15;;;2.05;;
13832;SDS011;6987;19.472;-99.276;2023-04-12T08:29:41;2.13;;;2.03;;
13832;SDS011;6987;19.472;-99.276;2023-04-12T08:32:10;2.72;;;2.40;;
13832;SDS011;6987;19.472;-99.276;2023-04-12T08:34:39;3.58;;;2.22;;
13832;SDS011;6987;19.472;-99.276;2023-04-12T08:37:08;2.47;;;2.33;;
13832;SDS011;6987;19.472;-99.276;2023-04-12T08:39:39;2.38;;;2.28;;
13832;SDS011;6987;19.472;-99.276;2023-04-12T08:42:08;2.50;;;2.30;;
13832;SDS011;6987;19.472;-99.276;2023-04-12T08:44:38;2.35;;;2.17;;
13832;SDS011;6987;19.472;-99.276;2023-04-12T08:47:09;2.85;;;2.65;;
13832;SDS011;6987;19.472;-99.276;2023-04-12T08:49:38;2.30;;;2.08;;
13832;SDS011;6987;19.472;-99.276;2023-04-12T08:52:07;2.22;;;2.10;;
13832;SDS011;6987;19.472;-99.276;2023-04-12T08:54:36;2.25;;;2.13;;
13832;SDS011;6987;19.472;-99.276;2023-04-12T08:57:07;2.20;;;2.10;;
13832;SDS011;6987;19.472;-99.276;2023-04-12T08:59:37;2.50;;;2.30;;
13832;SDS011;6987;19.472;-99.276;2023-04-12T09:02:09;2.30;;;2.20;;
13832;SDS011;6987;19.472;-99.276;2023-04-12T09:04:46;2.80;;;2.60;;
13832;SDS011;6987;19.472;-99.276;2023-04-12T09:07:16;2.35;;;2.22;;
13832;SDS011;6987;19.472;-99.276;2023-04-12T09:09:47;2.15;;;1.95;;
13832;SDS011;6987;19.472;-99.276;2023-04-12T09:12:17;2.83;;;2.38;;
13832;SDS011;6987;19.472;-99.276;2023-04-12T09:14:48;3.00;;;2.25;;
13832;SDS011;6987;19.472;-99.276;2023-04-12T09:17:35;2.10;;;2.00;;
13832;SDS011;6987;19.472;-99.276;2023-04-12T09:20:23;2.92;;;2.65;;
13832;SDS011;6987;19.472;-99.276;2023-04-12T09:22:52;2.35;;;2.25;;
13832;SDS011;6987;19.472;-99.276;2023-04-12T09:28:17;2.22;;;2.13;;
13832;SDS011;6987;19.472;-99.276;2023-04-12T09:30:46;2.63;;;2.53;;
13832;SDS011;6987;19.472;-99.276;2023-04-12T09:33:20;2.50;;;2.30;;
13832;SDS011;6987;19.472;-99.276;2023-04-12T09:35:49;2.30;;;2.20;;
13832;SDS011;6987;19.472;-99.276;2023-04-12T09:38:19;2.35;;;2.25;;
13832;SDS011;6987;19.472;-99.276;2023-04-12T09:40:49;2.22;;;2.13;;
13832;SDS011;6987;19.472;-99.276;2023-04-12T09:43:19;2.88;;;2.17;;
13832;SDS011;6987;19.472;-99.276;2023-04-12T09:46:10;2.88;;;2.65;;
13832;SDS011;6987;19.472;-99.276;2023-04-12T09:48:47;2.80;;;2.60;;
13832;SDS011;6987;19.472;-99.276;2023-04-12T09:51:23;4.70;;;2.83;;
13832;SDS011;6987;19.472;-99.276;2023-04-12T09:53:54;2.88;;;2.67;;
13832;SDS011;6987;19.472;-99.276;2023-04-12T09:56:27;2.35;;;2.15;;
13832;SDS011;6987;19.472;-99.276;2023-04-12T09:58:58;3.88;;;2.28;;
13832;SDS011;6987;19.472;-99.276;2023-04-12T10:01:28;2.40;;;2.30;;
13832;SDS011;6987;19.472;-99.276;2023-04-12T10:04:00;2.92;;;2.60;;
13832;SDS011;6987;19.472;-99.276;2023-04-12T10:06:31;3.78;;;2.60;;
13832;SDS011;6987;19.472;-99.276;2023-04-12T10:09:08;2.45;;;2.35;;
13832;SDS011;6987;19.472;-99.276;2023-04-12T10:11:37;2.13;;;1.92;;
13832;SDS011;6987;19.472;-99.276;2023-04-12T10:14:08;2.33;;;2.10;;
13832;SDS011;6987;19.472;-99.276;2023-04-12T10:16:39;3.03;;;2.00;;
13832;SDS011;6987;19.472;-99.276;2023-04-12T10:19:10;3.65;;;2.30;;
13832;SDS011;6987;19.472;-99.276;2023-04-12T10:21:41;2.15;;;1.83;;
13832;SDS011;6987;19.472;-99.276;2023-04-12T10:24:10;1.92;;;1.83;;
13832;SDS011;6987;19.472;-99.276;2023-04-12T10:26:40;1.98;;;1.88;;
13832;SDS011;6987;19.472;-99.276;2023-04-12T10:29:26;2.13;;;1.90;;
13832;SDS011;6987;19.472;-99.276;2023-04-12T10:32:16;3.60;;;1.92;;
13832;SDS011;6987;19.472;-99.276;2023-04-12T10:34:51;1.65;;;1.63;;
13832;SDS011;6987;19.472;-99.276;2023-04-12T10:37:21;2.25;;;2.15;;
13832;SDS011;6987;19.472;-99.276;2023-04-12T10:39:53;1.77;;;1.70;;
13832;SDS011;6987;19.472;-99.276;2023-04-12T10:42:23;1.70;;;1.60;;
13832;SDS011;6987;19.472;-99.276;2023-04-12T10:44:54;1.73;;;1.65;;
13832;SDS011;6987;19.472;-99.276;2023-04-12T10:50:21;3.13;;;1.73;;
13832;SDS011;6987;19.472;-99.276;2023-04-12T10:55:40;2.40;;;1.83;;
13832;SDS011;6987;19.472;-99.276;2023-04-12T10:58:09;1.55;;;1.55;;
13832;SDS011;6987;19.472;-99.276;2023-04-12T11:03:29;2.38;;;2.17;;
13832;SDS011;6987;19.472;-99.276;2023-04-12T11:06:01;2.20;;;2.10;;
13832;SDS011;6987;19.472;-99.276;2023-04-12T11:08:31;2.65;;;1.95;;
13832;SDS011;6987;19.472;-99.276;2023-04-12T11:11:00;2.40;;;2.30;;
13832;SDS011;6987;19.472;-99.276;2023-04-12T11:13:33;2.70;;;2.50;;
13832;SDS011;6987;19.472;-99.276;2023-04-12T11:16:03;2.25;;;2.15;;
13832;SDS011;6987;19.472;-99.276;2023-04-12T11:18:33;2.08;;;1.90;;
13832;SDS011;6987;19.472;-99.276;2023-04-12T11:21:05;1.70;;;1.60;;
13832;SDS011;6987;19.472;-99.276;2023-04-12T11:23:35;2.47;;;2.38;;
13832;SDS011;6987;19.472;-99.276;2023-04-12T11:26:06;2.10;;;2.00;;
13832;SDS011;6987;19.472;-99.276;2023-04-12T11:28:37;2.38;;;2.17;;
13832;SDS011;6987;19.472;-99.276;2023-04-12T11:31:06;1.55;;;1.52;;
13832;SDS011;6987;19.472;-99.276;2023-04-12T11:33:36;2.30;;;2.10;;
13832;SDS011;6987;19.472;-99.276;2023-04-12T11:36:07;1.95;;;1.92;;
13832;SDS011;6987;19.472;-99.276;2023-04-12T11:38:37;2.05;;;1.95;;
13832;SDS011;6987;19.472;-99.276;2023-04-12T11:41:06;2.22;;;2.13;;
13832;SDS011;6987;19.472;-99.276;2023-04-12T11:43:36;2.20;;;2.05;;
13832;SDS011;6987;19.472;-99.276;2023-04-12T11:46:05;2.28;;;2.17;;
13832;SDS011;6987;19.472;-99.276;2023-04-12T11:48:35;2.20;;;2.10;;
13832;SDS011;6987;19.472;-99.276;2023-04-12T11:51:19;2.35;;;2.25;;
13832;SDS011;6987;19.472;-99.276;2023-04-12T11:53:51;2.53;;;2.33;;
13832;SDS011;6987;19.472;-99.276;2023-04-12T11:56:21;2.40;;;2.30;;
13832;SDS011;6987;19.472;-99.276;2023-04-12T11:58:50;3.20;;;1.90;;
13832;SDS011;6987;19.472;-99.276;2023-04-12T12:01:20;2.45;;;2.33;;
13832;SDS011;6987;19.472;-99.276;2023-04-12T12:03:50;2.47;;;2.38;;
13832;SDS011;6987;19.472;-99.276;2023-04-12T12:06:20;2.22;;;2.13;;
13832;SDS011;6987;19.472;-99.276;2023-04-12T12:08:51;2.00;;;1.90;;
13832;SDS011;6987;19.472;-99.276;2023-04-12T12:11:21;2.60;;;2.40;;
13832;SDS011;6987;19.472;-99.276;2023-04-12T12:13:51;2.80;;;2.50;;
13832;SDS011;6987;19.472;-99.276;2023-04-12T12:16:23;4.20;;;2.58;;
13832;SDS011;6987;19.472;-99.276;2023-04-12T12:18:52;3.28;;;2.28;;
13832;SDS011;6987;19.472;-99.276;2023-04-12T12:21:23;2.20;;;2.10;;
13832;SDS011;6987;19.472;-99.276;2023-04-12T12:23:54;3.03;;;2.78;;
13832;SDS011;6987;19.472;-99.276;2023-04-12T12:26:24;2.80;;;2.60;;
13832;SDS011;6987;19.472;-99.276;2023-04-12T12:28:53;2.97;;;2.67;;
13832;SDS011;6987;19.472;-99.276;2023-04-12T12:31:25;3.13;;;2.85;;
13832;SDS011;6987;19.472;-99.276;2023-04-12T12:33:54;3.00;;;2.83;;
13832;SDS011;6987;19.472;-99.276;2023-04-12T12:36:32;5.72;;;3.40;;
13832;SDS011;6987;19.472;-99.276;2023-04-12T12:39:04;3.78;;;2.75;;
13832;SDS011;6987;19.472;-99.276;2023-04-12T12:41:35;3.05;;;2.85;;
13832;SDS011;6987;19.472;-99.276;2023-04-12T12:44:04;2.60;;;2.40;;
13832;SDS011;6987;19.472;-99.276;2023-04-12T12:46:33;3.05;;;2.85;;
13832;SDS011;6987;19.472;-99.276;2023-04-12T12:49:01;2.95;;;2.72;;
13832;SDS011;6987;19.472;-99.276;2023-04-12T12:51:32;3.05;;;2.75;;
13832;SDS011;6987;19.472;-99.276;2023-04-12T12:54:02;2.60;;;2.50;;
13832;SDS011;6987;19.472;-99.276;2023-04-12T12:56:32;3.05;;;2.75;;
13832;SDS011;6987;19.472;-99.276;2023-04-12T12:59:02;3.40;;;3.10;;
13832;SDS011;6987;19.472;-99.276;2023-04-12T13:01:32;2.63;;;2.42;;
13832;SDS011;6987;19.472;-99.276;2023-04-12T13:04:01;2.83;;;2.53;;
13832;SDS011;6987;19.472;-99.276;2023-04-12T13:06:32;2.63;;;2.42;;
13832;SDS011;6987;19.472;-99.276;2023-04-12T13:09:02;2.65;;;2.55;;
13832;SDS011;6987;19.472;-99.276;2023-04-12T13:11:33;3.08;;;2.83;;
13832;SDS011;6987;19.472;-99.276;2023-04-12T13:14:02;4.95;;;3.33;;
13832;SDS011;6987;19.472;-99.276;2023-04-12T13:16:31;4.13;;;2.70;;
13832;SDS011;6987;19.472;-99.276;2023-04-12T13:19:00;2.67;;;2.47;;
13832;SDS011;6987;19.472;-99.276;2023-04-12T13:21:30;2.88;;;2.67;;
13832;SDS011;6987;19.472;-99.276;2023-04-12T13:24:01;3.40;;;2.75;;
13832;SDS011;6987;19.472;-99.276;2023-04-12T13:26:30;3.15;;;2.95;;
13832;SDS011;6987;19.472;-99.276;2023-04-12T13:28:59;3.25;;;2.97;;
13832;SDS011;6987;19.472;-99.276;2023-04-12T13:31:28;2.78;;;2.58;;
13832;SDS011;6987;19.472;-99.276;2023-04-12T13:33:57;3.03;;;2.70;;
13832;SDS011;6987;19.472;-99.276;2023-04-12T13:36:26;3.30;;;3.10;;
13832;SDS011;6987;19.472;-99.276;2023-04-12T13:38:55;3.78;;;3.50;;
13832;SDS011;6987;19.472;-99.276;2023-04-12T13:41:27;3.58;;;3.25;;
13832;SDS011;6987;19.472;-99.276;2023-04-12T13:43:57;3.20;;;2.92;;
13832;SDS011;6987;19.472;-99.276;2023-04-12T13:46:26;3.53;;;3.00;;
13832;SDS011;6987;19.472;-99.276;2023-04-12T13:48:57;3.97;;;3.13;;
13832;SDS011;6987;19.472;-99.276;2023-04-12T13:51:26;3.17;;;2.97;;
13832;SDS011;6987;19.472;-99.276;2023-04-12T13:53:57;5.15;;;3.83;;
13832;SDS011;6987;19.472;-99.276;2023-04-12T13:56:28;6.00;;;3.30;;
13832;SDS011;6987;19.472;-99.276;2023-04-12T13:58:58;3.60;;;3.40;;
13832;SDS011;6987;19.472;-99.276;2023-04-12T14:01:28;3.88;;;3.65;;
13832;SDS011;6987;19.472;-99.276;2023-04-12T14:04:00;3.33;;;3.05;;
13832;SDS011;6987;19.472;-99.276;2023-04-12T14:06:30;4.05;;;3.67;;
13832;SDS011;6987;19.472;-99.276;2023-04-12T14:08:59;3.45;;;3.25;;
13832;SDS011;6987;19.472;-99.276;2023-04-12T14:11:39;4.18;;;3.88;;
13832;SDS011;6987;19.472;-99.276;2023-04-12T14:14:14;3.42;;;3.22;;
13832;SDS011;6987;19.472;-99.276;2023-04-12T14:16:43;3.72;;;3.53;;
13832;SDS011;6987;19.472;-99.276;2023-04-12T14:19:13;3.92;;;3.72;;
13832;SDS011;6987;19.472;-99.276;2023-04-12T14:21:42;4.45;;;4.25;;
13832;SDS011;6987;19.472;-99.276;2023-04-12T14:24:11;4.82;;;4.50;;
13832;SDS011;6987;19.472;-99.276;2023-04-12T14:26:42;4.93;;;4.53;;
13832;SDS011;6987;19.472;-99.276;2023-04-12T14:29:13;4.45;;;4.13;;
13832;SDS011;6987;19.472;-99.276;2023-04-12T14:31:42;4.80;;;4.45;;
13832;SDS011;6987;19.472;-99.276;2023-04-12T14:34:12;4.55;;;4.15;;
13832;SDS011;6987;19.472;-99.276;2023-04-12T14:36:41;3.78;;;3.53;;
13832;SDS011;6987;19.472;-99.276;2023-04-12T14:39:10;4.60;;;4.40;;
13832;SDS011;6987;19.472;-99.276;2023-04-12T14:41:39;4.22;;;3.92;;
13832;SDS011;6987;19.472;-99.276;2023-04-12T14:44:10;3.92;;;3.63;;
13832;SDS011;6987;19.472;-99.276;2023-04-12T14:46:40;3.67;;;3.47;;
13832;SDS011;6987;19.472;-99.276;2023-04-12T14:49:09;4.28;;;3.92;;
13832;SDS011;6987;19.472;-99.276;2023-04-12T14:51:39;3.67;;;3.47;;
13832;SDS011;6987;19.472;-99.276;2023-04-12T14:54:08;4.28;;;3.90;;
13832;SDS011;6987;19.472;-99.276;2023-04-12T14:56:36;4.40;;;4.00;;
13832;SDS011;6987;19.472;-99.276;2023-04-12T14:59:06;3.78;;;3.53;;
13832;SDS011;6987;19.472;-99.276;2023-04-12T15:01:36;4.55;;;4.25;;
13832;SDS011;6987;19.472;-99.276;2023-04-12T15:04:05;4.63;;;4.32;;
13832;SDS011;6987;19.472;-99.276;2023-04-12T15:06:34;4.03;;;3.83;;